MPH624 CYMX-EHAM
Flight info
| Callsign | MPH624 |
|---|---|
| Flight time | N/A |
| Altitude | 31000 |
| Route | DCT ANTEG DCT OBRON DCT MOBUB DCT EBMOS DCT IMORI DCT MIILS N371B JOOPY/M084F310 DCT 49N050W 51N040W 52N030W 52N020W DCT LIMRI/N0490F310 DCT XETBO/N0483F350 DCT UNBEG DCT DAP DCT LIFFY UL975 WAL M16 DOLAS L603 LAMSO LAMSO2A |
| Aircraft | MD11/H-SDE1E2E3FGHIJ2J3J4J5M1RWXY/LB1D1 |
Departure
| Time | N/A |
|---|---|
| Airport | Montreal Mirabel International Airport (CYMX) |
Arrival
| Time | 2026-04-29 15:02 |
|---|---|
| Airport | Amsterdam Airport Schiphol (EHAM) |
| Time | Latitude | Longitude | Altitude | Speed | Heading |
|---|---|---|---|---|---|
| 2026-04-29 13:16 | 52.02315 | -13.89081 | 31261 ft | 430 kts | 70° |
| 2026-04-29 13:16 | 52.04372 | -13.79944 | 31261 ft | 429 kts | 71° |
| 2026-04-29 13:17 | 52.06339 | -13.70839 | 31256 ft | 426 kts | 72° |
| 2026-04-29 13:17 | 52.08244 | -13.61713 | 31261 ft | 427 kts | 72° |
| 2026-04-29 13:18 | 52.10130 | -13.52555 | 31265 ft | 427 kts | 72° |
| 2026-04-29 13:18 | 52.12008 | -13.43393 | 31263 ft | 427 kts | 72° |
| 2026-04-29 13:19 | 52.13878 | -13.34230 | 31264 ft | 426 kts | 72° |
| 2026-04-29 13:19 | 52.15717 | -13.25184 | 31260 ft | 421 kts | 72° |
| 2026-04-29 13:20 | 52.17547 | -13.16135 | 31262 ft | 422 kts | 72° |
| 2026-04-29 13:20 | 52.19377 | -13.07045 | 31256 ft | 422 kts | 72° |
| 2026-04-29 13:21 | 52.21202 | -12.97938 | 31256 ft | 422 kts | 73° |
| 2026-04-29 13:21 | 52.23018 | -12.88840 | 31259 ft | 421 kts | 73° |
| 2026-04-29 13:22 | 52.24821 | -12.79757 | 31257 ft | 420 kts | 73° |
| 2026-04-29 13:22 | 52.26609 | -12.70680 | 31257 ft | 420 kts | 73° |
| 2026-04-29 13:23 | 52.28352 | -12.61566 | 31259 ft | 420 kts | 73° |
| 2026-04-29 13:23 | 52.30095 | -12.52523 | 31262 ft | 420 kts | 73° |
| 2026-04-29 13:24 | 52.31864 | -12.43413 | 31275 ft | 420 kts | 73° |
| 2026-04-29 13:24 | 52.33624 | -12.34336 | 31260 ft | 416 kts | 73° |
| 2026-04-29 13:25 | 52.35367 | -12.25310 | 31260 ft | 416 kts | 73° |
| 2026-04-29 13:25 | 52.37960 | -12.11796 | 31257 ft | 416 kts | 74° |
| 2026-04-29 13:26 | 52.39687 | -12.02739 | 31225 ft | 416 kts | 74° |
| 2026-04-29 13:26 | 52.41417 | -11.93625 | 31263 ft | 421 kts | 74° |
| 2026-04-29 13:27 | 52.43148 | -11.84461 | 31256 ft | 419 kts | 74° |
| 2026-04-29 13:27 | 52.44865 | -11.75325 | 31256 ft | 419 kts | 74° |
| 2026-04-29 13:28 | 52.46574 | -11.66190 | 31258 ft | 419 kts | 74° |
| 2026-04-29 13:28 | 52.48268 | -11.57088 | 31263 ft | 420 kts | 74° |
| 2026-04-29 13:29 | 52.49964 | -11.47930 | 31270 ft | 419 kts | 75° |
| 2026-04-29 13:29 | 52.51632 | -11.38800 | 31264 ft | 417 kts | 75° |
| 2026-04-29 13:30 | 52.53259 | -11.29660 | 31262 ft | 417 kts | 75° |
| 2026-04-29 13:30 | 52.54629 | -11.22049 | 31265 ft | 417 kts | 75° |
| 2026-04-29 13:31 | 52.56284 | -11.12910 | 31264 ft | 417 kts | 75° |
| 2026-04-29 13:31 | 52.57938 | -11.03760 | 31260 ft | 417 kts | 75° |
| 2026-04-29 13:32 | 52.59588 | -10.94593 | 31260 ft | 417 kts | 75° |
| 2026-04-29 13:32 | 52.61225 | -10.85448 | 31257 ft | 417 kts | 75° |
| 2026-04-29 13:33 | 52.62843 | -10.76364 | 31257 ft | 417 kts | 75° |
| 2026-04-29 13:33 | 52.64467 | -10.67202 | 31257 ft | 417 kts | 75° |
| 2026-04-29 13:34 | 52.66083 | -10.58035 | 31253 ft | 417 kts | 76° |
| 2026-04-29 13:34 | 52.67690 | -10.48874 | 31256 ft | 417 kts | 76° |
| 2026-04-29 13:35 | 52.69290 | -10.39701 | 31252 ft | 417 kts | 76° |
| 2026-04-29 13:35 | 52.70887 | -10.30504 | 31257 ft | 417 kts | 76° |
| 2026-04-29 13:36 | 52.72472 | -10.21327 | 31256 ft | 416 kts | 76° |
| 2026-04-29 13:36 | 52.74051 | -10.12134 | 31257 ft | 416 kts | 76° |
| 2026-04-29 13:37 | 52.75586 | -10.02907 | 31248 ft | 417 kts | 76° |
| 2026-04-29 13:37 | 52.77119 | -9.93673 | 31249 ft | 417 kts | 76° |
| 2026-04-29 13:38 | 52.78667 | -9.84455 | 31246 ft | 417 kts | 76° |
| 2026-04-29 13:38 | 52.80219 | -9.75229 | 31246 ft | 417 kts | 76° |
| 2026-04-29 13:39 | 52.81921 | -9.66062 | 31250 ft | 417 kts | 74° |
| 2026-04-29 13:39 | 52.83706 | -9.56995 | 31251 ft | 417 kts | 74° |
| 2026-04-29 13:40 | 52.85499 | -9.47893 | 31246 ft | 416 kts | 74° |
| 2026-04-29 13:40 | 52.87278 | -9.38787 | 31246 ft | 416 kts | 75° |
| 2026-04-29 13:41 | 52.89049 | -9.29660 | 31210 ft | 416 kts | 74° |
| 2026-04-29 13:41 | 52.90825 | -9.20447 | 31254 ft | 423 kts | 74° |
| 2026-04-29 13:42 | 52.92609 | -9.11164 | 31253 ft | 423 kts | 75° |
| 2026-04-29 13:42 | 52.94385 | -9.01878 | 31253 ft | 422 kts | 75° |
| 2026-04-29 13:43 | 52.96154 | -8.92580 | 31256 ft | 422 kts | 75° |
| 2026-04-29 13:43 | 52.97916 | -8.83270 | 31255 ft | 422 kts | 75° |
| 2026-04-29 13:44 | 52.99669 | -8.73962 | 31262 ft | 422 kts | 75° |
| 2026-04-29 13:44 | 53.01403 | -8.64709 | 31260 ft | 422 kts | 76° |
| 2026-04-29 13:45 | 53.03139 | -8.55399 | 31261 ft | 421 kts | 75° |
| 2026-04-29 13:45 | 53.04864 | -8.46103 | 31262 ft | 421 kts | 76° |
| 2026-04-29 13:46 | 53.06549 | -8.36781 | 31266 ft | 421 kts | 76° |
| 2026-04-29 13:46 | 53.08221 | -8.27453 | 31265 ft | 421 kts | 76° |
| 2026-04-29 13:47 | 53.09909 | -8.18142 | 31268 ft | 421 kts | 76° |
| 2026-04-29 13:47 | 53.11604 | -8.08805 | 31272 ft | 422 kts | 76° |
| 2026-04-29 13:48 | 53.13301 | -7.99427 | 31266 ft | 423 kts | 76° |
| 2026-04-29 13:48 | 53.14987 | -7.90068 | 31276 ft | 422 kts | 76° |
| 2026-04-29 13:49 | 53.16666 | -7.80689 | 31273 ft | 422 kts | 76° |
| 2026-04-29 13:49 | 53.18338 | -7.71302 | 31277 ft | 422 kts | 76° |
| 2026-04-29 13:50 | 53.20004 | -7.61903 | 31274 ft | 423 kts | 76° |
| 2026-04-29 13:50 | 53.21656 | -7.52525 | 31288 ft | 424 kts | 77° |
| 2026-04-29 13:51 | 53.23313 | -7.43081 | 31286 ft | 423 kts | 77° |
| 2026-04-29 13:51 | 53.24957 | -7.33652 | 31292 ft | 423 kts | 77° |
| 2026-04-29 13:52 | 53.26596 | -7.24206 | 31293 ft | 423 kts | 77° |
| 2026-04-29 13:52 | 53.28229 | -7.14746 | 31290 ft | 424 kts | 77° |
| 2026-04-29 13:53 | 53.29829 | -7.05260 | 31294 ft | 424 kts | 77° |
| 2026-04-29 13:53 | 53.31407 | -6.95752 | 31297 ft | 424 kts | 77° |
| 2026-04-29 13:54 | 53.33001 | -6.86261 | 31299 ft | 424 kts | 77° |
| 2026-04-29 13:54 | 53.34604 | -6.76754 | 31308 ft | 424 kts | 77° |
| 2026-04-29 13:55 | 53.36200 | -6.67254 | 31297 ft | 424 kts | 77° |
| 2026-04-29 13:55 | 53.37802 | -6.57654 | 31324 ft | 430 kts | 77° |
| 2026-04-29 13:56 | 53.39405 | -6.48011 | 31318 ft | 429 kts | 77° |
| 2026-04-29 13:56 | 53.41001 | -6.38354 | 31346 ft | 429 kts | 77° |
| 2026-04-29 13:57 | 53.42506 | -6.28760 | 31344 ft | 428 kts | 81° |
| 2026-04-29 13:57 | 53.43379 | -6.18906 | 31343 ft | 426 kts | 85° |
| 2026-04-29 13:58 | 53.44036 | -6.09027 | 31339 ft | 427 kts | 86° |
| 2026-04-29 13:58 | 53.44709 | -5.99138 | 31333 ft | 427 kts | 85° |
| 2026-04-29 13:59 | 53.45402 | -5.89248 | 31337 ft | 427 kts | 85° |
| 2026-04-29 13:59 | 53.46097 | -5.79341 | 31336 ft | 427 kts | 85° |
| 2026-04-29 14:00 | 53.46784 | -5.69444 | 31330 ft | 427 kts | 86° |
| 2026-04-29 14:00 | 53.47462 | -5.59549 | 31334 ft | 427 kts | 86° |
| 2026-04-29 14:01 | 53.48036 | -5.49639 | 31332 ft | 425 kts | 90° |
| 2026-04-29 14:01 | 53.47904 | -5.39732 | 31326 ft | 424 kts | 94° |
| 2026-04-29 14:02 | 53.47569 | -5.29891 | 31325 ft | 424 kts | 94° |
| 2026-04-29 14:02 | 53.47251 | -5.19992 | 31329 ft | 424 kts | 94° |
| 2026-04-29 14:03 | 53.46939 | -5.10091 | 31319 ft | 427 kts | 94° |
| 2026-04-29 14:03 | 53.46622 | -5.00130 | 31321 ft | 427 kts | 94° |
| 2026-04-29 14:04 | 53.46305 | -4.90179 | 31323 ft | 427 kts | 94° |
| 2026-04-29 14:04 | 53.45976 | -4.80225 | 31323 ft | 427 kts | 95° |
| 2026-04-29 14:05 | 53.45639 | -4.70274 | 31321 ft | 427 kts | 95° |
| 2026-04-29 14:05 | 53.45297 | -4.60325 | 31307 ft | 427 kts | 95° |
| 2026-04-29 14:06 | 53.44944 | -4.50355 | 31308 ft | 428 kts | 95° |
| 2026-04-29 14:06 | 53.44589 | -4.40397 | 31309 ft | 427 kts | 95° |
| 2026-04-29 14:07 | 53.44225 | -4.30508 | 31310 ft | 428 kts | 95° |
| 2026-04-29 14:07 | 53.43845 | -4.20542 | 31312 ft | 428 kts | 95° |
| 2026-04-29 14:08 | 53.43463 | -4.10579 | 31324 ft | 427 kts | 96° |
| 2026-04-29 14:08 | 53.43077 | -4.00654 | 31314 ft | 425 kts | 96° |
| 2026-04-29 14:09 | 53.42674 | -3.90741 | 31444 ft | 427 kts | 96° |
| 2026-04-29 14:09 | 53.42468 | -3.85784 | 31735 ft | 427 kts | 96° |
| 2026-04-29 14:09 | 53.42262 | -3.80828 | 32042 ft | 425 kts | 96° |
| 2026-04-29 14:10 | 53.42057 | -3.75889 | 32343 ft | 424 kts | 96° |
| 2026-04-29 14:10 | 53.41852 | -3.70963 | 32647 ft | 423 kts | 96° |
| 2026-04-29 14:10 | 53.41646 | -3.66051 | 32938 ft | 422 kts | 96° |
| 2026-04-29 14:10 | 53.41437 | -3.61153 | 33223 ft | 421 kts | 96° |
| 2026-04-29 14:11 | 53.41220 | -3.56242 | 33345 ft | 423 kts | 96° |
| 2026-04-29 14:11 | 53.41002 | -3.51355 | 33484 ft | 426 kts | 96° |
| 2026-04-29 14:11 | 53.40781 | -3.46406 | 33708 ft | 426 kts | 96° |
| 2026-04-29 14:11 | 53.40561 | -3.41457 | 33960 ft | 425 kts | 96° |
| 2026-04-29 14:12 | 53.40341 | -3.36518 | 34213 ft | 424 kts | 96° |
| 2026-04-29 14:12 | 53.40120 | -3.31589 | 34436 ft | 423 kts | 96° |
| 2026-04-29 14:12 | 53.39897 | -3.26674 | 34621 ft | 423 kts | 96° |
| 2026-04-29 14:12 | 53.39673 | -3.21761 | 34793 ft | 423 kts | 96° |
| 2026-04-29 14:13 | 53.39446 | -3.16847 | 34955 ft | 423 kts | 96° |
| 2026-04-29 14:13 | 53.39229 | -3.11917 | 35116 ft | 423 kts | 96° |
| 2026-04-29 14:13 | 53.39032 | -3.07002 | 35265 ft | 424 kts | 95° |
| 2026-04-29 14:13 | 53.38843 | -3.02055 | 35329 ft | 427 kts | 95° |
| 2026-04-29 14:14 | 53.38472 | -2.92065 | 35344 ft | 431 kts | 95° |
| 2026-04-29 14:14 | 53.38099 | -2.82091 | 35347 ft | 428 kts | 95° |
| 2026-04-29 14:15 | 53.37716 | -2.72144 | 35355 ft | 428 kts | 95° |
| 2026-04-29 14:15 | 53.37323 | -2.62194 | 35364 ft | 428 kts | 95° |
| 2026-04-29 14:16 | 53.36924 | -2.52302 | 35360 ft | 429 kts | 96° |
| 2026-04-29 14:16 | 53.36581 | -2.43950 | 35372 ft | 430 kts | 96° |
| 2026-04-29 14:17 | 53.36163 | -2.33972 | 35371 ft | 430 kts | 96° |
| 2026-04-29 14:17 | 53.35592 | -2.24026 | 35373 ft | 429 kts | 99° |
| 2026-04-29 14:18 | 53.34607 | -2.14195 | 35372 ft | 428 kts | 101° |
| 2026-04-29 14:18 | 53.33559 | -2.04377 | 35360 ft | 428 kts | 101° |
| 2026-04-29 14:19 | 53.32528 | -1.94536 | 35370 ft | 430 kts | 101° |
| 2026-04-29 14:19 | 53.31508 | -1.84728 | 35356 ft | 430 kts | 101° |
| 2026-04-29 14:20 | 53.30477 | -1.74858 | 35374 ft | 431 kts | 101° |
| 2026-04-29 14:20 | 53.29437 | -1.64990 | 35371 ft | 431 kts | 101° |
| 2026-04-29 14:21 | 53.28367 | -1.55152 | 35383 ft | 431 kts | 102° |
| 2026-04-29 14:21 | 53.27290 | -1.45273 | 35369 ft | 434 kts | 101° |
| 2026-04-29 14:22 | 53.26209 | -1.35328 | 35374 ft | 435 kts | 101° |
| 2026-04-29 14:22 | 53.25124 | -1.25390 | 35388 ft | 435 kts | 101° |
| 2026-04-29 14:23 | 53.24033 | -1.15477 | 35388 ft | 434 kts | 102° |
| 2026-04-29 14:23 | 53.22943 | -1.05651 | 35378 ft | 432 kts | 102° |
| 2026-04-29 14:24 | 53.21839 | -0.95781 | 35377 ft | 434 kts | 102° |
| 2026-04-29 14:24 | 53.20716 | -0.85862 | 35400 ft | 435 kts | 102° |
| 2026-04-29 14:25 | 53.19561 | -0.75953 | 35403 ft | 435 kts | 102° |
| 2026-04-29 14:25 | 53.18412 | -0.66052 | 35404 ft | 435 kts | 102° |
| 2026-04-29 14:26 | 53.17265 | -0.56147 | 35404 ft | 435 kts | 102° |
| 2026-04-29 14:26 | 53.16115 | -0.46253 | 35403 ft | 435 kts | 102° |
| 2026-04-29 14:27 | 53.14961 | -0.36399 | 35407 ft | 435 kts | 102° |
| 2026-04-29 14:28 | 53.13200 | -0.21515 | 35405 ft | 435 kts | 102° |
| 2026-04-29 14:28 | 53.12020 | -0.11635 | 35405 ft | 435 kts | 102° |
| 2026-04-29 14:29 | 53.10832 | -0.01761 | 35405 ft | 435 kts | 103° |
| 2026-04-29 14:29 | 53.09631 | 0.08139 | 35393 ft | 438 kts | 102° |
| 2026-04-29 14:30 | 53.08424 | 0.18021 | 35394 ft | 438 kts | 102° |
| 2026-04-29 14:30 | 53.07202 | 0.27956 | 35398 ft | 438 kts | 103° |
| 2026-04-29 14:31 | 53.05971 | 0.37892 | 35396 ft | 438 kts | 103° |
| 2026-04-29 14:31 | 53.04729 | 0.47827 | 35389 ft | 438 kts | 103° |
| 2026-04-29 14:32 | 53.03432 | 0.57742 | 35387 ft | 440 kts | 103° |
| 2026-04-29 14:32 | 53.02143 | 0.67657 | 35390 ft | 441 kts | 102° |
| 2026-04-29 14:33 | 53.00864 | 0.77615 | 35390 ft | 441 kts | 102° |
| 2026-04-29 14:33 | 52.99586 | 0.87568 | 35395 ft | 440 kts | 103° |
| 2026-04-29 14:34 | 52.98302 | 0.97499 | 35395 ft | 440 kts | 103° |
| 2026-04-29 14:34 | 52.97087 | 1.07470 | 35398 ft | 441 kts | 101° |
| 2026-04-29 14:35 | 52.95933 | 1.17485 | 35397 ft | 441 kts | 101° |
| 2026-04-29 14:35 | 52.94783 | 1.27487 | 35395 ft | 441 kts | 101° |
| 2026-04-29 14:36 | 52.93621 | 1.37487 | 35398 ft | 441 kts | 101° |
| 2026-04-29 14:36 | 52.92450 | 1.47479 | 35398 ft | 441 kts | 101° |
| 2026-04-29 14:37 | 52.91267 | 1.57475 | 35397 ft | 442 kts | 101° |
| 2026-04-29 14:37 | 52.90075 | 1.67486 | 35392 ft | 443 kts | 101° |
| 2026-04-29 14:37 | 52.89480 | 1.72449 | 35171 ft | 444 kts | 101° |
| 2026-04-29 14:38 | 52.88878 | 1.77455 | 34799 ft | 441 kts | 101° |
| 2026-04-29 14:38 | 52.88279 | 1.82418 | 34285 ft | 440 kts | 101° |
| 2026-04-29 14:38 | 52.87679 | 1.87366 | 33694 ft | 439 kts | 101° |
| 2026-04-29 14:38 | 52.87075 | 1.92330 | 33131 ft | 440 kts | 101° |
| 2026-04-29 14:39 | 52.86467 | 1.97307 | 32590 ft | 442 kts | 102° |
| 2026-04-29 14:39 | 52.85855 | 2.02300 | 32052 ft | 444 kts | 101° |
| 2026-04-29 14:39 | 52.85238 | 2.07317 | 31517 ft | 446 kts | 101° |
| 2026-04-29 14:39 | 52.84617 | 2.12347 | 30981 ft | 447 kts | 101° |
| 2026-04-29 14:40 | 52.83991 | 2.17401 | 30373 ft | 449 kts | 102° |
| 2026-04-29 14:40 | 52.83361 | 2.22466 | 29707 ft | 450 kts | 102° |
| 2026-04-29 14:40 | 52.82727 | 2.27542 | 29092 ft | 452 kts | 102° |
| 2026-04-29 14:40 | 52.82088 | 2.32638 | 28490 ft | 452 kts | 102° |
| 2026-04-29 14:41 | 52.81430 | 2.37713 | 27900 ft | 449 kts | 102° |
| 2026-04-29 14:41 | 52.80768 | 2.42736 | 27314 ft | 444 kts | 102° |
| 2026-04-29 14:41 | 52.80127 | 2.47622 | 26745 ft | 439 kts | 102° |
| 2026-04-29 14:41 | 52.79487 | 2.52529 | 26180 ft | 435 kts | 102° |
| 2026-04-29 14:42 | 52.78860 | 2.57367 | 25590 ft | 430 kts | 101° |
| 2026-04-29 14:42 | 52.78239 | 2.62177 | 25008 ft | 426 kts | 101° |
| 2026-04-29 14:42 | 52.77624 | 2.66948 | 24422 ft | 422 kts | 101° |
| 2026-04-29 14:42 | 52.77015 | 2.71665 | 23825 ft | 418 kts | 101° |
| 2026-04-29 14:43 | 52.76412 | 2.76323 | 23183 ft | 413 kts | 101° |
| 2026-04-29 14:43 | 52.75810 | 2.80941 | 22596 ft | 409 kts | 101° |
| 2026-04-29 14:43 | 52.75211 | 2.85503 | 22032 ft | 404 kts | 101° |
| 2026-04-29 14:43 | 52.74618 | 2.90011 | 21478 ft | 400 kts | 101° |
| 2026-04-29 14:44 | 52.74031 | 2.94477 | 20925 ft | 396 kts | 101° |
| 2026-04-29 14:44 | 52.73336 | 2.98844 | 20399 ft | 392 kts | 109° |
| 2026-04-29 14:44 | 52.72232 | 3.02938 | 19883 ft | 390 kts | 115° |
| 2026-04-29 14:44 | 52.70925 | 3.06853 | 19363 ft | 389 kts | 117° |
| 2026-04-29 14:45 | 52.69551 | 3.10705 | 18842 ft | 388 kts | 118° |
| 2026-04-29 14:45 | 52.68171 | 3.14527 | 18281 ft | 385 kts | 118° |
| 2026-04-29 14:45 | 52.66813 | 3.18308 | 17734 ft | 382 kts | 118° |
| 2026-04-29 14:45 | 52.65474 | 3.22071 | 17219 ft | 379 kts | 117° |
| 2026-04-29 14:46 | 52.64154 | 3.25805 | 16708 ft | 376 kts | 117° |
| 2026-04-29 14:46 | 52.62845 | 3.29519 | 16211 ft | 374 kts | 117° |
| 2026-04-29 14:46 | 52.61547 | 3.33209 | 15713 ft | 371 kts | 117° |
| 2026-04-29 14:46 | 52.60257 | 3.36875 | 15230 ft | 368 kts | 117° |
| 2026-04-29 14:47 | 52.59031 | 3.40491 | 14757 ft | 365 kts | 112° |
| 2026-04-29 14:47 | 52.58131 | 3.44359 | 14274 ft | 361 kts | 110° |
| 2026-04-29 14:47 | 52.56971 | 3.48041 | 13791 ft | 362 kts | 118° |
| 2026-04-29 14:47 | 52.56171 | 3.50137 | 13505 ft | 360 kts | 120° |
| 2026-04-29 14:48 | 52.54302 | 3.54768 | 12896 ft | 360 kts | 121° |
| 2026-04-29 14:48 | 52.52903 | 3.58173 | 12499 ft | 358 kts | 121° |
| 2026-04-29 14:48 | 52.51511 | 3.61550 | 12086 ft | 356 kts | 121° |
| 2026-04-29 14:48 | 52.50127 | 3.64898 | 11718 ft | 353 kts | 121° |
| 2026-04-29 14:49 | 52.48752 | 3.68221 | 11368 ft | 350 kts | 121° |
| 2026-04-29 14:49 | 52.47387 | 3.71507 | 11157 ft | 347 kts | 121° |
| 2026-04-29 14:49 | 52.46069 | 3.74677 | 11161 ft | 324 kts | 121° |
| 2026-04-29 14:49 | 52.44841 | 3.77606 | 11134 ft | 301 kts | 121° |
| 2026-04-29 14:50 | 52.43694 | 3.80324 | 11117 ft | 279 kts | 121° |
| 2026-04-29 14:50 | 52.42600 | 3.82893 | 11060 ft | 275 kts | 122° |
| 2026-04-29 14:50 | 52.41508 | 3.85455 | 10984 ft | 274 kts | 121° |
| 2026-04-29 14:50 | 52.40421 | 3.88015 | 10863 ft | 273 kts | 120° |
| 2026-04-29 14:51 | 52.39508 | 3.90719 | 10703 ft | 272 kts | 113° |
| 2026-04-29 14:51 | 52.38717 | 3.93478 | 10274 ft | 269 kts | 111° |
| 2026-04-29 14:51 | 52.37943 | 3.96257 | 9800 ft | 267 kts | 111° |
| 2026-04-29 14:51 | 52.37181 | 3.99009 | 9330 ft | 265 kts | 111° |
| 2026-04-29 14:52 | 52.36421 | 4.01744 | 8874 ft | 262 kts | 111° |
| 2026-04-29 14:52 | 52.35672 | 4.04444 | 8410 ft | 259 kts | 111° |
| 2026-04-29 14:52 | 52.34936 | 4.07113 | 7948 ft | 255 kts | 111° |
| 2026-04-29 14:52 | 52.34210 | 4.09755 | 7507 ft | 252 kts | 111° |
| 2026-04-29 14:53 | 52.33499 | 4.12359 | 7077 ft | 249 kts | 111° |
| 2026-04-29 14:53 | 52.32797 | 4.14932 | 6624 ft | 246 kts | 111° |
| 2026-04-29 14:53 | 52.32113 | 4.17446 | 6169 ft | 243 kts | 111° |
| 2026-04-29 14:53 | 52.31433 | 4.19956 | 5716 ft | 240 kts | 111° |
| 2026-04-29 14:54 | 52.30764 | 4.22441 | 5254 ft | 237 kts | 111° |
| 2026-04-29 14:54 | 52.30107 | 4.24904 | 4637 ft | 234 kts | 111° |
| 2026-04-29 14:54 | 52.29611 | 4.26779 | 4142 ft | 230 kts | 111° |
| 2026-04-29 14:54 | 52.28981 | 4.29146 | 3676 ft | 229 kts | 111° |
| 2026-04-29 14:55 | 52.28333 | 4.31541 | 3270 ft | 230 kts | 111° |
| 2026-04-29 14:55 | 52.27673 | 4.33915 | 2958 ft | 230 kts | 111° |
| 2026-04-29 14:55 | 52.26997 | 4.36297 | 2717 ft | 230 kts | 111° |
| 2026-04-29 14:55 | 52.26333 | 4.38554 | 2448 ft | 209 kts | 111° |
| 2026-04-29 14:56 | 52.25724 | 4.40578 | 2169 ft | 188 kts | 112° |
| 2026-04-29 14:56 | 52.25179 | 4.42408 | 1970 ft | 174 kts | 111° |
| 2026-04-29 14:56 | 52.24666 | 4.44127 | 1929 ft | 160 kts | 111° |
| 2026-04-29 14:56 | 52.24169 | 4.45772 | 1986 ft | 173 kts | 111° |
| 2026-04-29 14:57 | 52.23618 | 4.47644 | 1978 ft | 187 kts | 111° |
| 2026-04-29 14:57 | 52.23065 | 4.49542 | 1926 ft | 186 kts | 111° |
| 2026-04-29 14:57 | 52.22750 | 4.51545 | 1965 ft | 180 kts | 92° |
| 2026-04-29 14:57 | 52.22658 | 4.53586 | 1934 ft | 180 kts | 91° |
| 2026-04-29 14:58 | 52.22568 | 4.55624 | 1971 ft | 180 kts | 92° |
| 2026-04-29 14:58 | 52.22626 | 4.57507 | 1829 ft | 153 kts | 67° |
| 2026-04-29 14:58 | 52.23186 | 4.58854 | 1913 ft | 145 kts | 59° |
| 2026-04-29 14:58 | 52.23736 | 4.60251 | 2016 ft | 149 kts | 61° |
| 2026-04-29 14:59 | 52.24283 | 4.61664 | 1757 ft | 146 kts | 61° |
| 2026-04-29 14:59 | 52.24827 | 4.63072 | 1561 ft | 146 kts | 59° |
| 2026-04-29 14:59 | 52.25363 | 4.64461 | 1340 ft | 143 kts | 61° |
| 2026-04-29 14:59 | 52.25886 | 4.65821 | 1161 ft | 140 kts | 60° |
| 2026-04-29 15:00 | 52.26380 | 4.67106 | 965 ft | 139 kts | 61° |
| 2026-04-29 15:00 | 52.26899 | 4.68463 | 749 ft | 142 kts | 58° |
| 2026-04-29 15:00 | 52.27430 | 4.69846 | 569 ft | 147 kts | 59° |
| 2026-04-29 15:00 | 52.27968 | 4.71277 | 396 ft | 146 kts | 59° |
| 2026-04-29 15:01 | 52.28315 | 4.72196 | 274 ft | 142 kts | 59° |
| 2026-04-29 15:01 | 52.28844 | 4.73551 | 62 ft | 145 kts | 59° |
| 2026-04-29 15:01 | 52.29354 | 4.74872 | 9 ft | 122 kts | 63° |
| 2026-04-29 15:01 | 52.29718 | 4.75833 | 6 ft | 87 kts | 58° |
| 2026-04-29 15:02 | 52.30067 | 4.76735 | 5 ft | 59 kts | 58° |
| 2026-04-29 15:02 | 52.30228 | 4.77152 | 4 ft | 26 kts | 57° |
| 2026-04-29 15:02 | 52.30288 | 4.77307 | 3 ft | 20 kts | 58° |
| 2026-04-29 15:02 | 52.30317 | 4.77447 | 5 ft | 10 kts | 95° |
| 2026-04-29 15:03 | 52.30287 | 4.77525 | 6 ft | 7 kts | 142° |
| 2026-04-29 15:03 | 52.30245 | 4.77543 | 6 ft | 6 kts | 178° |
| 2026-04-29 15:03 | 52.30203 | 4.77525 | 7 ft | 6 kts | 204° |
| 2026-04-29 15:03 | 52.30165 | 4.77484 | 6 ft | 7 kts | 219° |
| 2026-04-29 15:04 | 52.30133 | 4.77428 | 6 ft | 7 kts | 231° |
| 2026-04-29 15:04 | 52.30104 | 4.77362 | 6 ft | 7 kts | 237° |
| 2026-04-29 15:04 | 52.30079 | 4.77297 | 6 ft | 7 kts | 237° |
| 2026-04-29 15:04 | 52.30056 | 4.77238 | 6 ft | 6 kts | 238° |
| 2026-04-29 15:05 | 52.30036 | 4.77187 | 6 ft | 5 kts | 238° |
| 2026-04-29 15:05 | 52.30020 | 4.77145 | 6 ft | 5 kts | 238° |
| 2026-04-29 15:05 | 52.30003 | 4.77099 | 6 ft | 5 kts | 238° |
| 2026-04-29 15:05 | 52.29985 | 4.77051 | 7 ft | 5 kts | 238° |
| 2026-04-29 15:06 | 52.29965 | 4.77000 | 7 ft | 6 kts | 238° |
| 2026-04-29 15:06 | 52.29944 | 4.76945 | 7 ft | 6 kts | 238° |
| 2026-04-29 15:06 | 52.29922 | 4.76894 | 6 ft | 5 kts | 224° |
| 2026-04-29 15:06 | 52.29890 | 4.76851 | 6 ft | 6 kts | 217° |
| 2026-04-29 15:07 | 52.29857 | 4.76800 | 6 ft | 7 kts | 229° |
| 2026-04-29 15:07 | 52.29828 | 4.76735 | 6 ft | 8 kts | 237° |
| 2026-04-29 15:07 | 52.29801 | 4.76666 | 6 ft | 7 kts | 238° |
| 2026-04-29 15:07 | 52.29776 | 4.76600 | 6 ft | 7 kts | 238° |
| 2026-04-29 15:08 | 52.29753 | 4.76541 | 7 ft | 6 kts | 238° |
| 2026-04-29 15:08 | 52.29731 | 4.76483 | 6 ft | 6 kts | 238° |
| 2026-04-29 15:08 | 52.29709 | 4.76428 | 6 ft | 6 kts | 238° |
| 2026-04-29 15:08 | 52.29687 | 4.76369 | 6 ft | 6 kts | 238° |
| 2026-04-29 15:09 | 52.29665 | 4.76311 | 7 ft | 6 kts | 238° |
| 2026-04-29 15:09 | 52.29645 | 4.76259 | 6 ft | 5 kts | 238° |
| 2026-04-29 15:09 | 52.29633 | 4.76244 | 7 ft | 1 kts | 210° |
| 2026-04-29 15:09 | 52.29630 | 4.76243 | 6 ft | 1 kts | 202° |
| 2026-04-29 15:10 | 52.29621 | 4.76243 | 6 ft | 1 kts | 180° |
| 2026-04-29 15:10 | 52.29607 | 4.76252 | 6 ft | 4 kts | 157° |
| 2026-04-29 15:10 | 52.29582 | 4.76276 | 6 ft | 4 kts | 149° |
| 2026-04-29 15:10 | 52.29566 | 4.76292 | 6 ft | 2 kts | 148° |
| 2026-04-29 15:11 | 52.29562 | 4.76296 | 6 ft | 0 kts | 148° |